Sioux Lookout, Canada
Current Conditions -  °F | °C
As of 10:40 AM on Thursday 23 Oct 2014 (Local Time) from CYXL Reporting Station
Overcast Overcast  
Wind Chill: 43°   Ceiling: 700
Heat Index: 48°   Visibility: 12mi
Dew Point: 46°   Wind: 12mph
Humidity: 93%   Direction: 210°SSW
Pressure: 29.87"   Gusts: NA
Location:  50.1°N, 91.92°W
Report Text: CYXL 231540Z 21010KT 160V230 12SM SCT005 OVC007 09/08 A2987 RMK SF4ST4 SLP126
Loading
Personal Weather Stations






























Interactive Weather Map
Tropical Storm Tracking
New forecast layout! Learn more

10-Day Weather Forecast

Advertisements
Track Severe Weather on mobile